Astrid — OFLT — position and weather

sailwx.info

Track history (hours):
 
Tides and Currents Weather Stations Pressure Air Temp Water Temp Dewpoint Dewpoint Depression Visibility Wind Speed Wind Dir Waves Ship Positions

Astrid

Last reported at 2016-Jul-28 04:28 UTC. Time now 2016-Aug-26 11:56 UTC.
Position N 59°57' E 024°07'.
Warning: this ship's position is 29 days out of date.

Length 25 m; draft 2.3 m.

Type: Sailing vessel. MMSI: 230998670.

Date/timePositionNaut miles runAvg speedWind from/ knotsBaromVisibWave heightAir tempDewpointWater temp
2016-Jul-28 04:28N 59°57' E 024°07'6 6.2
2016-Jul-28 03:29N 59°57' E 023°54'1 0.1
2016-Jul-27 18:06N 59°56' E 023°54'0 0.2
2016-Jul-27 17:33N 59°56' E 023°54'2 1.5
2016-Jul-27 16:33N 59°55' E 023°52'3 3.3
2016-Jul-27 15:33N 59°55' E 023°46'4 3.8
2016-Jul-27 14:33N 59°53' E 023°39'4 4.0
2016-Jul-27 13:33N 59°50' E 023°33'4 4.4
2016-Jul-27 12:33N 59°50' E 023°25'4 4.1
2016-Jul-27 11:33N 59°49' E 023°17'3 3.3
2016-Jul-27 10:33N 59°48' E 023°11'3 3.2
2016-Jul-27 09:33N 59°48' E 023°04'51 1.2
2016-Jul-25 16:33N 60°06' E 021°30'  
2016-Jul-20 08:13N 59°43' E 023°02'3 3.7
2016-Jul-20 07:28N 59°43' E 023°07'2 2.1
2016-Jul-20 06:34N 59°44' E 023°11'3 2.8
2016-Jul-20 05:33N 59°43' E 023°17'4 4.1
2016-Jul-20 04:33N 59°43' E 023°25'5 4.9
2016-Jul-20 03:33N 59°44' E 023°34'6 5.8
2016-Jul-20 02:33N 59°46' E 023°45'5 5.2
2016-Jul-20 01:32N 59°47' E 023°55'5 4.3
2016-Jul-20 00:24N 59°49' E 024°05'  
Track history (hours):
 
Tides and Currents Weather Stations Pressure Air Temp Water Temp Dewpoint Dewpoint Depression Visibility Wind Speed Wind Dir Waves Ship Positions

Astrid

Last reported at 2016-Jul-28 04:28 UTC. Time now 2016-Aug-26 11:56 UTC.
Position N 59°57' E 024°07'.
Warning: this ship's position is 29 days out of date.

Length 25 m; draft 2.3 m.

Type: Sailing vessel. MMSI: 230998670.

Date/timePositionNaut miles runAvg speedWind from/ knotsBaromVisibWave heightAir tempDewpointWater temp
2016-Jul-28 04:28N 59°57' E 024°07'6 6.2
2016-Jul-28 03:29N 59°57' E 023°54'1 0.1
2016-Jul-27 18:06N 59°56' E 023°54'0 0.2
2016-Jul-27 17:33N 59°56' E 023°54'2 1.5
2016-Jul-27 16:33N 59°55' E 023°52'3 3.3
2016-Jul-27 15:33N 59°55' E 023°46'4 3.8
2016-Jul-27 14:33N 59°53' E 023°39'4 4.0
2016-Jul-27 13:33N 59°50' E 023°33'4 4.4
2016-Jul-27 12:33N 59°50' E 023°25'4 4.1
2016-Jul-27 11:33N 59°49' E 023°17'3 3.3
2016-Jul-27 10:33N 59°48' E 023°11'3 3.2
2016-Jul-27 09:33N 59°48' E 023°04'51 1.2
2016-Jul-25 16:33N 60°06' E 021°30'  
2016-Jul-20 08:13N 59°43' E 023°02'3 3.7
2016-Jul-20 07:28N 59°43' E 023°07'2 2.1
2016-Jul-20 06:34N 59°44' E 023°11'3 2.8
2016-Jul-20 05:33N 59°43' E 023°17'4 4.1
2016-Jul-20 04:33N 59°43' E 023°25'5 4.9
2016-Jul-20 03:33N 59°44' E 023°34'6 5.8
2016-Jul-20 02:33N 59°46' E 023°45'5 5.2
2016-Jul-20 01:32N 59°47' E 023°55'5 4.3
2016-Jul-20 00:24N 59°49' E 024°05'  

Dump ship's entire track history